PWSweather.com
Personal Weather Stations
Station Observations
KCOGRAND2
Redlands, Southcamp Road & Dakota Circle, Grand Junction, CO 81507

Redlands, Southcamp Road & Dakota CircleGrand Junction, CO 81507

Lat: 39.055, Lon: -108.637

Elevation: 4870

Station Type: RadioShack WX200

High Low Average
Temperature 57.6°F14.2°F 45.3°F7.4°F 49.4°F9.7°F
Dew Point 47.7°F8.7°F 30.9°F-0.6°F 41.9°F5.5°F
Winds 13.0 mph S20.9 mph S Calm Calm 3.7 mph 6.0 mph
Wind Gusts 21.5 mph34.6 mph -- 6.9 mph11.1 mph
Humidity 91% 45% 76%
Pressure 25.19 in853.00 in 24.92 in843.90 in -
Precipitation 0.00 in0.00 in - -
Hour Temp Dew Point Humidity Winds Wind Gusts Pressure Precip Precip Rate Daily Precip Total
12:01 AM 51.1°F10.6°C 42.1°F5.6°C 71% Calm Calm 2.7 mph4.3 kmh 24.95 in844.9 mb 0.00 in0.0 mm 0.00 in/hr0.0 mm/hr 0.00 in0.0 mm
12:06 AM 50.4°F10.2°C 41.4°F5.2°C 71% Calm Calm 3.1 mph5.0 kmh 24.95 in844.9 mb 0.00 in0.0 mm 0.00 in/hr0.0 mm/hr 0.00 in0.0 mm
12:11 AM 49.8°F9.9°C 40.8°F4.9°C 71% Calm Calm 2.7 mph4.3 kmh 24.95 in844.9 mb 0.00 in0.0 mm 0.00 in/hr0.0 mm/hr 0.00 in0.0 mm
12:16 AM 49.5°F9.7°C 40.8°F4.9°C 72% Calm Calm 2.7 mph4.3 kmh 24.95 in844.9 mb 0.00 in0.0 mm 0.00 in/hr0.0 mm/hr 0.00 in0.0 mm
12:21 AM 49.8°F9.9°C 41.5°F5.3°C 73% Calm Calm 2.7 mph4.3 kmh 24.95 in844.9 mb 0.00 in0.0 mm 0.00 in/hr0.0 mm/hr 0.00 in0.0 mm
12:26 AM 49.6°F9.8°C 41.0°F5.0°C 72% Calm Calm 3.1 mph5.0 kmh 24.95 in844.9 mb 0.00 in0.0 mm 0.00 in/hr0.0 mm/hr 0.00 in0.0 mm
12:31 AM 50.2°F10.1°C 41.5°F5.3°C 72% 2.0 mph SE3.2 kmh SE 3.1 mph5.0 kmh 24.95 in844.9 mb 0.00 in0.0 mm 0.00 in/hr0.0 mm/hr 0.00 in0.0 mm
12:36 AM 50.5°F10.3°C 41.5°F5.3°C 71% 2.0 mph SE3.2 kmh SE 4.0 mph6.4 kmh 24.95 in844.9 mb 0.00 in0.0 mm 0.00 in/hr0.0 mm/hr 0.00 in0.0 mm
12:41 AM 50.4°F10.2°C 40.6°F4.8°C 69% 3.0 mph ESE4.8 kmh ESE 3.6 mph5.8 kmh 24.95 in844.9 mb 0.00 in0.0 mm 0.00 in/hr0.0 mm/hr 0.00 in0.0 mm
12:46 AM 49.8°F9.9°C 40.1°F4.5°C 69% 3.0 mph E4.8 kmh E 3.6 mph5.8 kmh 24.95 in844.9 mb 0.00 in0.0 mm 0.00 in/hr0.0 mm/hr 0.00 in0.0 mm
12:51 AM 50.2°F10.1°C 40.8°F4.9°C 70% 3.0 mph ENE4.8 kmh ENE 4.5 mph7.2 kmh 24.95 in844.9 mb 0.00 in0.0 mm 0.00 in/hr0.0 mm/hr 0.00 in0.0 mm
12:56 AM 50.7°F10.4°C 41.7°F5.4°C 71% 3.0 mph N4.8 kmh N 5.4 mph8.7 kmh 24.95 in844.9 mb 0.00 in0.0 mm 0.00 in/hr0.0 mm/hr 0.00 in0.0 mm
01:01 AM 51.3°F10.7°C 41.9°F5.5°C 70% 3.0 mph NNW4.8 kmh NNW 4.9 mph7.9 kmh 24.95 in844.9 mb 0.00 in0.0 mm 0.00 in/hr0.0 mm/hr 0.00 in0.0 mm
01:06 AM 50.7°F10.4°C 42.1°F5.6°C 72% 4.0 mph NNW6.4 kmh NNW 5.8 mph9.3 kmh 24.95 in844.9 mb 0.00 in0.0 mm 0.00 in/hr0.0 mm/hr 0.00 in0.0 mm
01:11 AM 50.7°F10.4°C 42.4°F5.8°C 73% 4.0 mph NNW6.4 kmh NNW 4.9 mph7.9 kmh 24.95 in844.9 mb 0.00 in0.0 mm 0.00 in/hr0.0 mm/hr 0.00 in0.0 mm
01:16 AM 51.1°F10.6°C 42.4°F5.8°C 72% 3.0 mph N4.8 kmh N 6.9 mph11.1 kmh 24.95 in844.9 mb 0.00 in0.0 mm 0.00 in/hr0.0 mm/hr 0.00 in0.0 mm
01:21 AM 50.5°F10.3°C 41.9°F5.5°C 72% 3.0 mph N4.8 kmh N 4.0 mph6.4 kmh 24.95 in844.9 mb 0.00 in0.0 mm 0.00 in/hr0.0 mm/hr 0.00 in0.0 mm
01:26 AM 49.3°F9.6°C 40.6°F4.8°C 72% 2.0 mph NNE3.2 kmh NNE 4.0 mph6.4 kmh 24.95 in844.9 mb 0.00 in0.0 mm 0.00 in/hr0.0 mm/hr 0.00 in0.0 mm
01:31 AM 48.9°F9.4°C 41.0°F5.0°C 74% Calm Calm 2.7 mph4.3 kmh 24.95 in844.9 mb 0.00 in0.0 mm 0.00 in/hr0.0 mm/hr 0.00 in0.0 mm
01:36 AM 48.7°F9.3°C 41.2°F5.1°C 75% Calm Calm 3.1 mph5.0 kmh 24.95 in844.9 mb 0.00 in0.0 mm 0.00 in/hr0.0 mm/hr 0.00 in0.0 mm
01:41 AM 49.1°F9.5°C 41.2°F5.1°C 74% 2.0 mph NE3.2 kmh NE 3.6 mph5.8 kmh 24.95 in844.9 mb 0.00 in0.0 mm 0.00 in/hr0.0 mm/hr 0.00 in0.0 mm
01:46 AM 49.6°F9.8°C 42.1°F5.6°C 75% 3.0 mph NNE4.8 kmh NNE 4.5 mph7.2 kmh 24.95 in844.9 mb 0.00 in0.0 mm 0.00 in/hr0.0 mm/hr 0.00 in0.0 mm
01:51 AM 50.2°F10.1°C 42.3°F5.7°C 74% 4.0 mph N6.4 kmh N 6.3 mph10.1 kmh 24.95 in844.9 mb 0.00 in0.0 mm 0.00 in/hr0.0 mm/hr 0.00 in0.0 mm
01:56 AM 50.4°F10.2°C 42.1°F5.6°C 73% 4.0 mph NNW6.4 kmh NNW 6.7 mph10.8 kmh 24.95 in844.9 mb 0.00 in0.0 mm 0.00 in/hr0.0 mm/hr 0.00 in0.0 mm
02:01 AM 50.2°F10.1°C 41.9°F5.5°C 73% 4.0 mph N6.4 kmh N 6.3 mph10.1 kmh 24.95 in844.9 mb 0.00 in0.0 mm 0.00 in/hr0.0 mm/hr 0.00 in0.0 mm
02:06 AM 50.0°F10.0°C 42.1°F5.6°C 74% 3.0 mph NNE4.8 kmh NNE 5.4 mph8.7 kmh 24.95 in844.9 mb 0.00 in0.0 mm 0.00 in/hr0.0 mm/hr 0.00 in0.0 mm
02:11 AM 49.6°F9.8°C 42.1°F5.6°C 75% 3.0 mph NE4.8 kmh NE 6.9 mph11.1 kmh 24.95 in844.9 mb 0.00 in0.0 mm 0.00 in/hr0.0 mm/hr 0.00 in0.0 mm
02:16 AM 49.3°F9.6°C 42.1°F5.6°C 76% 2.0 mph NNE3.2 kmh NNE 3.6 mph5.8 kmh 24.95 in844.9 mb 0.00 in0.0 mm 0.00 in/hr0.0 mm/hr 0.00 in0.0 mm
02:21 AM 49.3°F9.6°C 42.4°F5.8°C 77% 3.0 mph NNE4.8 kmh NNE 5.8 mph9.3 kmh 24.95 in844.9 mb 0.00 in0.0 mm 0.00 in/hr0.0 mm/hr 0.00 in0.0 mm
02:26 AM 49.5°F9.7°C 42.8°F6.0°C 78% 4.0 mph N6.4 kmh N 6.7 mph10.8 kmh 24.95 in844.9 mb 0.00 in0.0 mm 0.00 in/hr0.0 mm/hr 0.00 in0.0 mm
02:31 AM 49.5°F9.7°C 42.8°F6.0°C 78% 4.0 mph NNW6.4 kmh NNW 7.4 mph11.9 kmh 24.95 in844.9 mb 0.00 in0.0 mm 0.00 in/hr0.0 mm/hr 0.00 in0.0 mm
02:36 AM 49.3°F9.6°C 42.4°F5.8°C 77% 2.0 mph N3.2 kmh N 4.9 mph7.9 kmh 24.95 in844.9 mb 0.00 in0.0 mm 0.00 in/hr0.0 mm/hr 0.00 in0.0 mm
02:41 AM 49.3°F9.6°C 42.4°F5.8°C 77% 1.0 mph N1.6 kmh N 5.4 mph8.7 kmh 24.95 in844.9 mb 0.00 in0.0 mm 0.00 in/hr0.0 mm/hr 0.00 in0.0 mm
02:46 AM 48.7°F9.3°C 42.3°F5.7°C 78% 2.0 mph NNE3.2 kmh NNE 4.5 mph7.2 kmh 24.95 in844.9 mb 0.00 in0.0 mm 0.00 in/hr0.0 mm/hr 0.00 in0.0 mm
02:51 AM 48.9°F9.4°C 42.4°F5.8°C 78% 1.0 mph NNE1.6 kmh NNE 5.4 mph8.7 kmh 24.95 in844.9 mb 0.00 in0.0 mm 0.00 in/hr0.0 mm/hr 0.00 in0.0 mm
02:56 AM 49.6°F9.8°C 43.0°F6.1°C 78% 3.0 mph NNE4.8 kmh NNE 7.4 mph11.9 kmh 24.95 in844.9 mb 0.00 in0.0 mm 0.00 in/hr0.0 mm/hr 0.00 in0.0 mm
03:01 AM 49.8°F9.9°C 43.2°F6.2°C 78% 4.0 mph NNE6.4 kmh NNE 6.9 mph11.1 kmh 24.95 in844.9 mb 0.00 in0.0 mm 0.00 in/hr0.0 mm/hr 0.00 in0.0 mm
03:06 AM 49.5°F9.7°C 42.6°F5.9°C 77% 3.0 mph NE4.8 kmh NE 5.8 mph9.3 kmh 24.92 in843.9 mb 0.00 in0.0 mm 0.00 in/hr0.0 mm/hr 0.00 in0.0 mm
03:11 AM 49.1°F9.5°C 42.3°F5.7°C 77% 2.0 mph ENE3.2 kmh ENE 4.0 mph6.4 kmh 24.92 in843.9 mb 0.00 in0.0 mm 0.00 in/hr0.0 mm/hr 0.00 in0.0 mm
03:16 AM 48.9°F9.4°C 42.4°F5.8°C 78% 1.0 mph ENE1.6 kmh ENE 3.1 mph5.0 kmh 24.92 in843.9 mb 0.00 in0.0 mm 0.00 in/hr0.0 mm/hr 0.00 in0.0 mm
03:21 AM 48.7°F9.3°C 42.4°F5.8°C 79% 1.0 mph ENE1.6 kmh ENE 4.5 mph7.2 kmh 24.95 in844.9 mb 0.00 in0.0 mm 0.00 in/hr0.0 mm/hr 0.00 in0.0 mm
03:26 AM 48.4°F9.1°C 42.3°F5.7°C 79% 2.0 mph E3.2 kmh E 4.0 mph6.4 kmh 24.95 in844.9 mb 0.00 in0.0 mm 0.00 in/hr0.0 mm/hr 0.00 in0.0 mm
03:31 AM 48.2°F9.0°C 42.3°F5.7°C 80% Calm Calm 3.1 mph5.0 kmh 24.95 in844.9 mb 0.00 in0.0 mm 0.00 in/hr0.0 mm/hr 0.00 in0.0 mm
03:36 AM 48.4°F9.1°C 42.8°F6.0°C 81% Calm Calm 2.7 mph4.3 kmh 24.92 in843.9 mb 0.00 in0.0 mm 0.00 in/hr0.0 mm/hr 0.00 in0.0 mm
03:41 AM 48.2°F9.0°C 42.6°F5.9°C 81% 1.0 mph E1.6 kmh E 4.9 mph7.9 kmh 24.92 in843.9 mb 0.00 in0.0 mm 0.00 in/hr0.0 mm/hr 0.00 in0.0 mm
03:46 AM 47.5°F8.6°C 41.5°F5.3°C 80% 2.0 mph E3.2 kmh E 4.0 mph6.4 kmh 24.92 in843.9 mb 0.00 in0.0 mm 0.00 in/hr0.0 mm/hr 0.00 in0.0 mm
03:51 AM 47.3°F8.5°C 41.7°F5.4°C 81% Calm Calm 2.7 mph4.3 kmh 24.92 in843.9 mb 0.00 in0.0 mm 0.00 in/hr0.0 mm/hr 0.00 in0.0 mm
03:56 AM 47.1°F8.4°C 42.3°F5.7°C 83% Calm Calm 2.7 mph4.3 kmh 24.92 in843.9 mb 0.00 in0.0 mm 0.00 in/hr0.0 mm/hr 0.00 in0.0 mm
04:01 AM 46.9°F8.3°C 42.1°F5.6°C 83% Calm Calm 3.1 mph5.0 kmh 24.92 in843.9 mb 0.00 in0.0 mm 0.00 in/hr0.0 mm/hr 0.00 in0.0 mm
04:06 AM 46.9°F8.3°C 42.4°F5.8°C 84% Calm Calm 3.6 mph5.8 kmh 24.92 in843.9 mb 0.00 in0.0 mm 0.00 in/hr0.0 mm/hr 0.00 in0.0 mm
04:11 AM 46.8°F8.2°C 42.3°F5.7°C 84% 1.0 mph E1.6 kmh E 4.0 mph6.4 kmh 24.92 in843.9 mb 0.00 in0.0 mm 0.00 in/hr0.0 mm/hr 0.00 in0.0 mm
04:21 AM 46.8°F8.2°C 42.4°F5.8°C 85% 1.0 mph E1.6 kmh E -- 24.92 in843.9 mb 0.00 in0.0 mm 0.00 in/hr0.0 mm/hr 0.00 in0.0 mm
04:26 AM 46.6°F8.1°C 42.3°F5.7°C 85% 1.0 mph E1.6 kmh E 3.6 mph5.8 kmh 24.92 in843.9 mb 0.00 in0.0 mm 0.00 in/hr0.0 mm/hr 0.00 in0.0 mm
04:31 AM 46.6°F8.1°C 42.6°F5.9°C 86% 2.0 mph E3.2 kmh E 3.6 mph5.8 kmh 24.92 in843.9 mb 0.00 in0.0 mm 0.00 in/hr0.0 mm/hr 0.00 in0.0 mm
04:36 AM 46.4°F8.0°C 42.4°F5.8°C 86% 1.0 mph E1.6 kmh E 3.1 mph5.0 kmh 24.92 in843.9 mb 0.00 in0.0 mm 0.00 in/hr0.0 mm/hr 0.00 in0.0 mm
04:41 AM 46.2°F7.9°C 42.3°F5.7°C 86% Calm Calm 2.7 mph4.3 kmh 24.92 in843.9 mb 0.00 in0.0 mm 0.00 in/hr0.0 mm/hr 0.00 in0.0 mm
04:46 AM 46.2°F7.9°C 42.3°F5.7°C 86% Calm Calm 3.6 mph5.8 kmh 24.92 in843.9 mb 0.00 in0.0 mm 0.00 in/hr0.0 mm/hr 0.00 in0.0 mm
04:51 AM 46.8°F8.2°C 42.8°F6.0°C 86% 1.0 mph E1.6 kmh E 4.0 mph6.4 kmh 24.92 in843.9 mb 0.00 in0.0 mm 0.00 in/hr0.0 mm/hr 0.00 in0.0 mm
04:56 AM 46.8°F8.2°C 42.8°F6.0°C 86% 1.0 mph E1.6 kmh E 3.6 mph5.8 kmh 24.92 in843.9 mb 0.00 in0.0 mm 0.00 in/hr0.0 mm/hr 0.00 in0.0 mm
05:01 AM 46.9°F8.3°C 42.6°F5.9°C 85% 2.0 mph E3.2 kmh E 4.9 mph7.9 kmh 24.92 in843.9 mb 0.00 in0.0 mm 0.00 in/hr0.0 mm/hr 0.00 in0.0 mm
05:06 AM 46.6°F8.1°C 42.3°F5.7°C 85% 3.0 mph E4.8 kmh E 4.5 mph7.2 kmh 24.92 in843.9 mb 0.00 in0.0 mm 0.00 in/hr0.0 mm/hr 0.00 in0.0 mm
05:11 AM 46.2°F7.9°C 41.9°F5.5°C 85% 2.0 mph E3.2 kmh E 4.0 mph6.4 kmh 24.92 in843.9 mb 0.00 in0.0 mm 0.00 in/hr0.0 mm/hr 0.00 in0.0 mm
05:16 AM 46.2°F7.9°C 41.9°F5.5°C 85% 1.0 mph E1.6 kmh E 3.1 mph5.0 kmh 24.92 in843.9 mb 0.00 in0.0 mm 0.00 in/hr0.0 mm/hr 0.00 in0.0 mm
05:21 AM 46.6°F8.1°C 42.3°F5.7°C 85% 1.0 mph E1.6 kmh E 5.8 mph9.3 kmh 24.92 in843.9 mb 0.00 in0.0 mm 0.00 in/hr0.0 mm/hr 0.00 in0.0 mm
05:26 AM 47.1°F8.4°C 43.2°F6.2°C 86% 2.0 mph NE3.2 kmh NE 6.7 mph10.8 kmh 24.92 in843.9 mb 0.00 in0.0 mm 0.00 in/hr0.0 mm/hr 0.00 in0.0 mm
05:31 AM 47.5°F8.6°C 43.2°F6.2°C 85% 2.0 mph NE3.2 kmh NE 4.0 mph6.4 kmh 24.92 in843.9 mb 0.00 in0.0 mm 0.00 in/hr0.0 mm/hr 0.00 in0.0 mm
05:36 AM 47.5°F8.6°C 42.8°F6.0°C 84% 1.0 mph NE1.6 kmh NE 3.1 mph5.0 kmh 24.92 in843.9 mb 0.00 in0.0 mm 0.00 in/hr0.0 mm/hr 0.00 in0.0 mm
05:41 AM 47.5°F8.6°C 42.6°F5.9°C 83% 1.0 mph NE1.6 kmh NE 3.6 mph5.8 kmh 24.92 in843.9 mb 0.00 in0.0 mm 0.00 in/hr0.0 mm/hr 0.00 in0.0 mm
05:46 AM 48.2°F9.0°C 43.3°F6.3°C 83% 4.0 mph E6.4 kmh E 15.4 mph24.8 kmh 24.92 in843.9 mb 0.00 in0.0 mm 0.00 in/hr0.0 mm/hr 0.00 in0.0 mm
05:51 AM 48.0°F8.9°C 43.3°F6.3°C 84% 8.0 mph S12.9 kmh S 12.1 mph19.5 kmh 24.95 in844.9 mb 0.00 in0.0 mm 0.00 in/hr0.0 mm/hr 0.00 in0.0 mm
05:56 AM 48.0°F8.9°C 43.3°F6.3°C 84% 8.0 mph S12.9 kmh S 10.5 mph16.9 kmh 24.95 in844.9 mb 0.00 in0.0 mm 0.00 in/hr0.0 mm/hr 0.00 in0.0 mm
06:01 AM 48.9°F9.4°C 44.1°F6.7°C 83% 6.0 mph SSE9.7 kmh SSE 9.6 mph15.4 kmh 24.95 in844.9 mb 0.00 in0.0 mm 0.00 in/hr0.0 mm/hr 0.00 in0.0 mm
06:06 AM 50.5°F10.3°C 43.0°F6.1°C 75% 6.0 mph SSE9.7 kmh SSE 12.5 mph20.1 kmh 24.98 in845.9 mb 0.00 in0.0 mm 0.00 in/hr0.0 mm/hr 0.00 in0.0 mm
06:11 AM 50.5°F10.3°C 42.3°F5.7°C 73% 7.0 mph SSE11.3 kmh SSE 13.4 mph21.6 kmh 24.98 in845.9 mb 0.00 in0.0 mm 0.00 in/hr0.0 mm/hr 0.00 in0.0 mm
06:16 AM 49.6°F9.8°C 41.4°F5.2°C 73% 8.0 mph S12.9 kmh S 14.3 mph23.0 kmh 24.98 in845.9 mb 0.00 in0.0 mm 0.00 in/hr0.0 mm/hr 0.00 in0.0 mm
06:21 AM 48.6°F9.2°C 41.4°F5.2°C 76% 12.0 mph S19.3 kmh S 21.5 mph34.6 kmh 24.98 in845.9 mb 0.00 in0.0 mm 0.00 in/hr0.0 mm/hr 0.00 in0.0 mm
06:26 AM 47.8°F8.8°C 42.3°F5.7°C 81% 13.0 mph S20.9 kmh S 21.0 mph33.8 kmh 24.98 in845.9 mb 0.00 in0.0 mm 0.00 in/hr0.0 mm/hr 0.00 in0.0 mm
06:31 AM 47.5°F8.6°C 42.6°F5.9°C 83% 11.0 mph S17.7 kmh S 17.7 mph28.5 kmh 24.98 in845.9 mb 0.00 in0.0 mm 0.00 in/hr0.0 mm/hr 0.00 in0.0 mm
06:36 AM 47.3°F8.5°C 42.4°F5.8°C 83% 10.0 mph S16.1 kmh S 15.9 mph25.6 kmh 25.01 in846.9 mb 0.00 in0.0 mm 0.00 in/hr0.0 mm/hr 0.00 in0.0 mm
06:41 AM 47.1°F8.4°C 42.8°F6.0°C 85% 10.0 mph S16.1 kmh S 13.9 mph22.4 kmh 25.01 in846.9 mb 0.00 in0.0 mm 0.00 in/hr0.0 mm/hr 0.00 in0.0 mm
06:46 AM 46.8°F8.2°C 42.8°F6.0°C 86% 8.0 mph S12.9 kmh S 10.5 mph16.9 kmh 25.01 in846.9 mb 0.00 in0.0 mm 0.00 in/hr0.0 mm/hr 0.00 in0.0 mm
06:51 AM 46.6°F8.1°C 43.0°F6.1°C 87% 7.0 mph S11.3 kmh S 12.5 mph20.1 kmh 25.01 in846.9 mb 0.00 in0.0 mm 0.00 in/hr0.0 mm/hr 0.00 in0.0 mm
06:56 AM 46.4°F8.0°C 43.0°F6.1°C 88% 7.0 mph S11.3 kmh S 8.3 mph13.4 kmh 25.01 in846.9 mb 0.00 in0.0 mm 0.00 in/hr0.0 mm/hr 0.00 in0.0 mm
07:01 AM 46.2°F7.9°C 42.8°F6.0°C 88% 6.0 mph S9.7 kmh S 10.5 mph16.9 kmh 25.01 in846.9 mb 0.00 in0.0 mm 0.00 in/hr0.0 mm/hr 0.00 in0.0 mm
07:06 AM 46.4°F8.0°C 43.3°F6.3°C 89% 6.0 mph S9.7 kmh S 10.1 mph16.3 kmh 25.01 in846.9 mb 0.00 in0.0 mm 0.00 in/hr0.0 mm/hr 0.00 in0.0 mm
07:11 AM 46.2°F7.9°C 43.2°F6.2°C 89% 7.0 mph S11.3 kmh S 11.2 mph18.0 kmh 25.01 in846.9 mb 0.00 in0.0 mm 0.00 in/hr0.0 mm/hr 0.00 in0.0 mm
07:16 AM 46.2°F7.9°C 43.2°F6.2°C 89% 8.0 mph S12.9 kmh S 11.6 mph18.7 kmh 25.01 in846.9 mb 0.00 in0.0 mm 0.00 in/hr0.0 mm/hr 0.00 in0.0 mm
07:22 AM 46.2°F7.9°C 43.2°F6.2°C 89% 7.0 mph S11.3 kmh S 10.1 mph16.3 kmh 25.01 in846.9 mb 0.00 in0.0 mm 0.00 in/hr0.0 mm/hr 0.00 in0.0 mm
07:27 AM 46.2°F7.9°C 43.2°F6.2°C 89% 6.0 mph S9.7 kmh S 10.1 mph16.3 kmh 25.01 in846.9 mb 0.00 in0.0 mm 0.00 in/hr0.0 mm/hr 0.00 in0.0 mm
07:32 AM 46.4°F8.0°C 43.3°F6.3°C 89% 7.0 mph SSE11.3 kmh SSE 10.1 mph16.3 kmh 25.01 in846.9 mb 0.00 in0.0 mm 0.00 in/hr0.0 mm/hr 0.00 in0.0 mm
07:37 AM 46.6°F8.1°C 43.5°F6.4°C 89% 7.0 mph SSE11.3 kmh SSE 11.6 mph18.7 kmh 25.01 in846.9 mb 0.00 in0.0 mm 0.00 in/hr0.0 mm/hr 0.00 in0.0 mm
07:42 AM 46.6°F8.1°C 43.2°F6.2°C 88% 7.0 mph SSE11.3 kmh SSE 11.0 mph17.7 kmh 25.01 in846.9 mb 0.00 in0.0 mm 0.00 in/hr0.0 mm/hr 0.00 in0.0 mm
07:47 AM 46.6°F8.1°C 43.5°F6.4°C 89% 6.0 mph S9.7 kmh S 7.4 mph11.9 kmh 25.01 in846.9 mb 0.00 in0.0 mm 0.00 in/hr0.0 mm/hr 0.00 in0.0 mm
07:52 AM 46.4°F8.0°C 43.3°F6.3°C 89% 6.0 mph S9.7 kmh S 8.3 mph13.4 kmh 25.01 in846.9 mb 0.00 in0.0 mm 0.00 in/hr0.0 mm/hr 0.00 in0.0 mm
07:57 AM 46.4°F8.0°C 43.3°F6.3°C 89% 5.0 mph S8.0 kmh S 5.8 mph9.3 kmh 25.01 in846.9 mb 0.00 in0.0 mm 0.00 in/hr0.0 mm/hr 0.00 in0.0 mm
08:02 AM 46.2°F7.9°C 43.5°F6.4°C 90% 4.0 mph S6.4 kmh S 5.8 mph9.3 kmh 25.01 in846.9 mb 0.00 in0.0 mm 0.00 in/hr0.0 mm/hr 0.00 in0.0 mm
08:07 AM 46.2°F7.9°C 43.5°F6.4°C 90% 3.0 mph SSW4.8 kmh SSW 4.9 mph7.9 kmh 25.01 in846.9 mb 0.00 in0.0 mm 0.00 in/hr0.0 mm/hr 0.00 in0.0 mm
08:12 AM 46.2°F7.9°C 43.5°F6.4°C 90% 2.0 mph SSW3.2 kmh SSW 3.1 mph5.0 kmh 25.01 in846.9 mb 0.00 in0.0 mm 0.00 in/hr0.0 mm/hr 0.00 in0.0 mm
08:17 AM 46.4°F8.0°C 43.9°F6.6°C 91% 1.0 mph SSW1.6 kmh SSW 3.1 mph5.0 kmh 25.01 in846.9 mb 0.00 in0.0 mm 0.00 in/hr0.0 mm/hr 0.00 in0.0 mm
08:22 AM 46.2°F7.9°C 43.7°F6.5°C 91% 2.0 mph SSW3.2 kmh SSW 4.9 mph7.9 kmh 25.04 in848.0 mb 0.00 in0.0 mm 0.00 in/hr0.0 mm/hr 0.00 in0.0 mm
08:27 AM 46.2°F7.9°C 43.7°F6.5°C 91% 1.0 mph SSW1.6 kmh SSW 4.5 mph7.2 kmh 25.04 in848.0 mb 0.00 in0.0 mm 0.00 in/hr0.0 mm/hr 0.00 in0.0 mm
08:32 AM 45.9°F7.7°C 43.3°F6.3°C 91% 1.0 mph SSW1.6 kmh SSW 4.0 mph6.4 kmh 25.04 in848.0 mb 0.00 in0.0 mm 0.00 in/hr0.0 mm/hr 0.00 in0.0 mm
08:37 AM 45.5°F7.5°C 43.0°F6.1°C 91% 1.0 mph SSW1.6 kmh SSW 3.6 mph5.8 kmh 25.04 in848.0 mb 0.00 in0.0 mm 0.00 in/hr0.0 mm/hr 0.00 in0.0 mm
08:42 AM 45.7°F7.6°C 43.2°F6.2°C 91% Calm Calm 3.1 mph5.0 kmh 25.04 in848.0 mb 0.00 in0.0 mm 0.00 in/hr0.0 mm/hr 0.00 in0.0 mm
08:47 AM 45.3°F7.4°C 42.6°F5.9°C 90% 1.0 mph S1.6 kmh S 7.4 mph11.9 kmh 25.04 in848.0 mb 0.00 in0.0 mm 0.00 in/hr0.0 mm/hr 0.00 in0.0 mm
08:52 AM 45.3°F7.4°C 42.6°F5.9°C 90% 2.0 mph SE3.2 kmh SE 4.9 mph7.9 kmh 25.04 in848.0 mb 0.00 in0.0 mm 0.00 in/hr0.0 mm/hr 0.00 in0.0 mm
08:57 AM 45.3°F7.4°C 42.3°F5.7°C 89% 2.0 mph ESE3.2 kmh ESE 5.4 mph8.7 kmh 25.04 in848.0 mb 0.00 in0.0 mm 0.00 in/hr0.0 mm/hr 0.00 in0.0 mm
09:02 AM 45.7°F7.6°C 42.3°F5.7°C 88% 3.0 mph ENE4.8 kmh ENE 6.7 mph10.8 kmh 25.04 in848.0 mb 0.00 in0.0 mm 0.00 in/hr0.0 mm/hr 0.00 in0.0 mm
09:07 AM 45.9°F7.7°C 41.9°F5.5°C 86% 5.0 mph NNE8.0 kmh NNE 10.1 mph16.3 kmh 25.01 in846.9 mb 0.00 in0.0 mm 0.00 in/hr0.0 mm/hr 0.00 in0.0 mm
09:12 AM 45.9°F7.7°C 41.9°F5.5°C 86% 6.0 mph NNE9.7 kmh NNE 11.0 mph17.7 kmh 25.01 in846.9 mb 0.00 in0.0 mm 0.00 in/hr0.0 mm/hr 0.00 in0.0 mm
09:17 AM 45.7°F7.6°C 41.4°F5.2°C 85% 7.0 mph NNE11.3 kmh NNE 10.1 mph16.3 kmh 25.01 in846.9 mb 0.00 in0.0 mm 0.00 in/hr0.0 mm/hr 0.00 in0.0 mm
09:22 AM 46.2°F7.9°C 41.9°F5.5°C 85% 5.0 mph NNE8.0 kmh NNE 6.9 mph11.1 kmh 25.01 in846.9 mb 0.00 in0.0 mm 0.00 in/hr0.0 mm/hr 0.00 in0.0 mm
09:27 AM 46.4°F8.0°C 42.1°F5.6°C 85% 3.0 mph NNE4.8 kmh NNE 5.4 mph8.7 kmh 25.01 in846.9 mb 0.00 in0.0 mm 0.00 in/hr0.0 mm/hr 0.00 in0.0 mm
09:32 AM 46.9°F8.3°C 42.6°F5.9°C 85% 3.0 mph NNE4.8 kmh NNE 4.9 mph7.9 kmh 25.01 in846.9 mb 0.00 in0.0 mm 0.00 in/hr0.0 mm/hr 0.00 in0.0 mm
09:37 AM 46.6°F8.1°C 42.1°F5.6°C 84% 4.0 mph N6.4 kmh N 8.3 mph13.4 kmh 25.01 in846.9 mb 0.00 in0.0 mm 0.00 in/hr0.0 mm/hr 0.00 in0.0 mm
09:42 AM 46.8°F8.2°C 41.0°F5.0°C 80% 6.0 mph N9.7 kmh N 11.0 mph17.7 kmh 25.01 in846.9 mb 0.00 in0.0 mm 0.00 in/hr0.0 mm/hr 0.00 in0.0 mm
09:47 AM 47.5°F8.6°C 41.9°F5.5°C 81% 6.0 mph NNW9.7 kmh NNW 7.8 mph12.6 kmh 25.01 in846.9 mb 0.00 in0.0 mm 0.00 in/hr0.0 mm/hr 0.00 in0.0 mm
09:52 AM 47.3°F8.5°C 41.7°F5.4°C 81% 6.0 mph NNW9.7 kmh NNW 11.2 mph18.0 kmh 25.04 in848.0 mb 0.00 in0.0 mm 0.00 in/hr0.0 mm/hr 0.00 in0.0 mm
09:57 AM 47.5°F8.6°C 42.3°F5.7°C 82% 6.0 mph NNW9.7 kmh NNW 7.4 mph11.9 kmh 25.04 in848.0 mb 0.00 in0.0 mm 0.00 in/hr0.0 mm/hr 0.00 in0.0 mm
10:02 AM 47.3°F8.5°C 42.4°F5.8°C 83% 6.0 mph NNW9.7 kmh NNW 10.5 mph16.9 kmh 25.04 in848.0 mb 0.00 in0.0 mm 0.00 in/hr0.0 mm/hr 0.00 in0.0 mm
10:07 AM 47.8°F8.8°C 43.2°F6.2°C 84% 6.0 mph NNW9.7 kmh NNW 8.3 mph13.4 kmh 25.04 in848.0 mb 0.00 in0.0 mm 0.00 in/hr0.0 mm/hr 0.00 in0.0 mm
10:12 AM 48.0°F8.9°C 43.3°F6.3°C 84% 6.0 mph NNW9.7 kmh NNW 10.1 mph16.3 kmh 25.04 in848.0 mb 0.00 in0.0 mm 0.00 in/hr0.0 mm/hr 0.00 in0.0 mm
10:17 AM 48.9°F9.4°C 44.6°F7.0°C 85% 6.0 mph N9.7 kmh N 9.6 mph15.4 kmh 25.04 in848.0 mb 0.00 in0.0 mm 0.00 in/hr0.0 mm/hr 0.00 in0.0 mm
10:22 AM 48.7°F9.3°C 44.4°F6.9°C 85% 6.0 mph N9.7 kmh N 10.5 mph16.9 kmh 25.04 in848.0 mb 0.00 in0.0 mm 0.00 in/hr0.0 mm/hr 0.00 in0.0 mm
10:27 AM 48.7°F9.3°C 44.1°F6.7°C 84% 7.0 mph N11.3 kmh N 11.6 mph18.7 kmh 25.04 in848.0 mb 0.00 in0.0 mm 0.00 in/hr0.0 mm/hr 0.00 in0.0 mm
10:32 AM 49.5°F9.7°C 44.8°F7.1°C 84% 6.0 mph N9.7 kmh N 11.2 mph18.0 kmh 25.04 in848.0 mb 0.00 in0.0 mm 0.00 in/hr0.0 mm/hr 0.00 in0.0 mm
10:37 AM 49.6°F9.8°C 44.8°F7.1°C 83% 6.0 mph N9.7 kmh N 8.7 mph14.0 kmh 25.04 in848.0 mb 0.00 in0.0 mm 0.00 in/hr0.0 mm/hr 0.00 in0.0 mm
10:42 AM 49.6°F9.8°C 44.4°F6.9°C 82% 6.0 mph N9.7 kmh N 11.2 mph18.0 kmh 25.04 in848.0 mb 0.00 in0.0 mm 0.00 in/hr0.0 mm/hr 0.00 in0.0 mm
10:47 AM 50.2°F10.1°C 44.6°F7.0°C 81% 6.0 mph N9.7 kmh N 9.6 mph15.4 kmh 25.04 in848.0 mb 0.00 in0.0 mm 0.00 in/hr0.0 mm/hr 0.00 in0.0 mm
10:52 AM 50.4°F10.2°C 44.1°F6.7°C 79% 6.0 mph NNW9.7 kmh NNW 9.2 mph14.8 kmh 25.04 in848.0 mb 0.00 in0.0 mm 0.00 in/hr0.0 mm/hr 0.00 in0.0 mm
10:57 AM 51.4°F10.8°C 43.7°F6.5°C 75% 6.0 mph N9.7 kmh N 9.2 mph14.8 kmh 25.04 in848.0 mb 0.00 in0.0 mm 0.00 in/hr0.0 mm/hr 0.00 in0.0 mm
11:02 AM 51.6°F10.9°C 43.3°F6.3°C 73% 6.0 mph N9.7 kmh N 8.7 mph14.0 kmh 25.04 in848.0 mb 0.00 in0.0 mm 0.00 in/hr0.0 mm/hr 0.00 in0.0 mm
11:07 AM 50.7°F10.4°C 42.4°F5.8°C 73% 5.0 mph N8.0 kmh N 7.4 mph11.9 kmh 25.04 in848.0 mb 0.00 in0.0 mm 0.00 in/hr0.0 mm/hr 0.00 in0.0 mm
11:12 AM 51.3°F10.7°C 42.6°F5.9°C 72% 4.0 mph N6.4 kmh N 6.3 mph10.1 kmh 25.04 in848.0 mb 0.00 in0.0 mm 0.00 in/hr0.0 mm/hr 0.00 in0.0 mm
11:17 AM 50.7°F10.4°C 41.7°F5.4°C 71% 4.0 mph NNW6.4 kmh NNW 6.9 mph11.1 kmh 25.04 in848.0 mb 0.00 in0.0 mm 0.00 in/hr0.0 mm/hr 0.00 in0.0 mm
11:22 AM 50.7°F10.4°C 42.1°F5.6°C 72% 4.0 mph NW6.4 kmh NW 7.8 mph12.6 kmh 25.04 in848.0 mb 0.00 in0.0 mm 0.00 in/hr0.0 mm/hr 0.00 in0.0 mm
11:27 AM 50.5°F10.3°C 40.8°F4.9°C 69% 4.0 mph WNW6.4 kmh WNW 7.8 mph12.6 kmh 25.04 in848.0 mb 0.00 in0.0 mm 0.00 in/hr0.0 mm/hr 0.00 in0.0 mm
11:32 AM 51.1°F10.6°C 39.7°F4.3°C 65% 5.0 mph W8.0 kmh W 6.9 mph11.1 kmh 25.04 in848.0 mb 0.00 in0.0 mm 0.00 in/hr0.0 mm/hr 0.00 in0.0 mm
11:37 AM 51.3°F10.7°C 39.0°F3.9°C 63% 5.0 mph W8.0 kmh W 8.3 mph13.4 kmh 25.04 in848.0 mb 0.00 in0.0 mm 0.00 in/hr0.0 mm/hr 0.00 in0.0 mm
11:42 AM 51.4°F10.8°C 39.7°F4.3°C 64% 5.0 mph WSW8.0 kmh WSW 7.8 mph12.6 kmh 25.04 in848.0 mb 0.00 in0.0 mm 0.00 in/hr0.0 mm/hr 0.00 in0.0 mm
11:47 AM 52.2°F11.2°C 41.5°F5.3°C 67% 4.0 mph W6.4 kmh W 7.4 mph11.9 kmh 25.04 in848.0 mb 0.00 in0.0 mm 0.00 in/hr0.0 mm/hr 0.00 in0.0 mm
11:52 AM 52.2°F11.2°C 41.9°F5.5°C 68% 5.0 mph W8.0 kmh W 7.8 mph12.6 kmh 25.04 in848.0 mb 0.00 in0.0 mm 0.00 in/hr0.0 mm/hr 0.00 in0.0 mm
11:57 AM 51.8°F11.0°C 40.5°F4.7°C 65% 5.0 mph SW8.0 kmh SW 8.3 mph13.4 kmh 25.04 in848.0 mb 0.00 in0.0 mm 0.00 in/hr0.0 mm/hr 0.00 in0.0 mm
12:02 PM 52.7°F11.5°C 41.7°F5.4°C 66% 5.0 mph SW8.0 kmh SW 7.4 mph11.9 kmh 25.04 in848.0 mb 0.00 in0.0 mm 0.00 in/hr0.0 mm/hr 0.00 in0.0 mm
12:07 PM 54.1°F12.3°C 41.9°F5.5°C 63% 3.0 mph SW4.8 kmh SW 5.4 mph8.7 kmh 25.04 in848.0 mb 0.00 in0.0 mm 0.00 in/hr0.0 mm/hr 0.00 in0.0 mm
12:12 PM 54.1°F12.3°C 39.2°F4.0°C 57% 2.0 mph SW3.2 kmh SW 4.9 mph7.9 kmh 25.04 in848.0 mb 0.00 in0.0 mm 0.00 in/hr0.0 mm/hr 0.00 in0.0 mm
12:17 PM 53.1°F11.7°C 38.3°F3.5°C 57% 3.0 mph SW4.8 kmh SW 6.9 mph11.1 kmh 25.04 in848.0 mb 0.00 in0.0 mm 0.00 in/hr0.0 mm/hr 0.00 in0.0 mm
12:22 PM 53.2°F11.8°C 37.6°F3.1°C 55% 2.0 mph SW3.2 kmh SW 4.5 mph7.2 kmh 25.04 in848.0 mb 0.00 in0.0 mm 0.00 in/hr0.0 mm/hr 0.00 in0.0 mm
12:27 PM 53.6°F12.0°C 37.8°F3.2°C 55% 1.0 mph SW1.6 kmh SW 4.0 mph6.4 kmh 25.04 in848.0 mb 0.00 in0.0 mm 0.00 in/hr0.0 mm/hr 0.00 in0.0 mm
12:32 PM 53.2°F11.8°C 37.9°F3.3°C 56% 2.0 mph SW3.2 kmh SW 8.7 mph14.0 kmh 25.04 in848.0 mb 0.00 in0.0 mm 0.00 in/hr0.0 mm/hr 0.00 in0.0 mm
12:37 PM 53.2°F11.8°C 38.8°F3.8°C 58% 4.0 mph SW6.4 kmh SW 5.8 mph9.3 kmh 25.04 in848.0 mb 0.00 in0.0 mm 0.00 in/hr0.0 mm/hr 0.00 in0.0 mm
12:42 PM 53.4°F11.9°C 38.7°F3.7°C 57% 2.0 mph NW3.2 kmh NW 4.5 mph7.2 kmh 25.04 in848.0 mb 0.00 in0.0 mm 0.00 in/hr0.0 mm/hr 0.00 in0.0 mm
12:47 PM 53.6°F12.0°C 38.3°F3.5°C 56% 2.0 mph NNW3.2 kmh NNW 5.8 mph9.3 kmh 25.04 in848.0 mb 0.00 in0.0 mm 0.00 in/hr0.0 mm/hr 0.00 in0.0 mm
12:52 PM 53.8°F12.1°C 37.6°F3.1°C 54% 3.0 mph N4.8 kmh N 4.5 mph7.2 kmh 25.04 in848.0 mb 0.00 in0.0 mm 0.00 in/hr0.0 mm/hr 0.00 in0.0 mm
12:57 PM 54.7°F12.6°C 38.3°F3.5°C 54% 3.0 mph N4.8 kmh N 5.4 mph8.7 kmh 25.04 in848.0 mb 0.00 in0.0 mm 0.00 in/hr0.0 mm/hr 0.00 in0.0 mm
01:02 PM 55.4°F13.0°C 39.0°F3.9°C 54% 3.0 mph NNW4.8 kmh NNW 4.9 mph7.9 kmh 25.04 in848.0 mb 0.00 in0.0 mm 0.00 in/hr0.0 mm/hr 0.00 in0.0 mm
01:07 PM 56.3°F13.5°C 38.8°F3.8°C 52% 3.0 mph NW4.8 kmh NW 5.4 mph8.7 kmh 25.01 in846.9 mb 0.00 in0.0 mm 0.00 in/hr0.0 mm/hr 0.00 in0.0 mm
01:12 PM 56.7°F13.7°C 38.3°F3.5°C 50% 3.0 mph NNE4.8 kmh NNE 6.3 mph10.1 kmh 25.01 in846.9 mb 0.00 in0.0 mm 0.00 in/hr0.0 mm/hr 0.00 in0.0 mm
01:17 PM 55.4°F13.0°C 36.5°F2.5°C 49% 2.0 mph NE3.2 kmh NE 6.7 mph10.8 kmh 25.01 in846.9 mb 0.00 in0.0 mm 0.00 in/hr0.0 mm/hr 0.00 in0.0 mm
01:22 PM 55.9°F13.3°C 37.0°F2.8°C 49% 2.0 mph NNE3.2 kmh NNE 5.4 mph8.7 kmh 25.01 in846.9 mb 0.00 in0.0 mm 0.00 in/hr0.0 mm/hr 0.00 in0.0 mm
01:27 PM 54.9°F12.7°C 36.5°F2.5°C 50% 3.0 mph NW4.8 kmh NW 8.3 mph13.4 kmh 25.01 in846.9 mb 0.00 in0.0 mm 0.00 in/hr0.0 mm/hr 0.00 in0.0 mm
01:32 PM 54.7°F12.6°C 37.4°F3.0°C 52% 4.0 mph NW6.4 kmh NW 7.4 mph11.9 kmh 25.01 in846.9 mb 0.00 in0.0 mm 0.00 in/hr0.0 mm/hr 0.00 in0.0 mm
01:37 PM 55.8°F13.2°C 39.4°F4.1°C 54% 5.0 mph NNW8.0 kmh NNW 9.6 mph15.4 kmh 25.01 in846.9 mb 0.00 in0.0 mm 0.00 in/hr0.0 mm/hr 0.00 in0.0 mm
01:42 PM 54.9°F12.7°C 37.0°F2.8°C 51% 6.0 mph N9.7 kmh N 9.6 mph15.4 kmh 25.01 in846.9 mb 0.00 in0.0 mm 0.00 in/hr0.0 mm/hr 0.00 in0.0 mm
01:47 PM 55.8°F13.2°C 38.8°F3.8°C 53% 5.0 mph NNE8.0 kmh NNE 8.3 mph13.4 kmh 25.01 in846.9 mb 0.00 in0.0 mm 0.00 in/hr0.0 mm/hr 0.00 in0.0 mm
01:52 PM 55.8°F13.2°C 38.8°F3.8°C 53% 5.0 mph NNE8.0 kmh NNE 8.7 mph14.0 kmh 25.01 in846.9 mb 0.00 in0.0 mm 0.00 in/hr0.0 mm/hr 0.00 in0.0 mm
01:57 PM 55.2°F12.9°C 36.9°F2.7°C 50% 6.0 mph NNE9.7 kmh NNE 10.1 mph16.3 kmh 25.01 in846.9 mb 0.00 in0.0 mm 0.00 in/hr0.0 mm/hr 0.00 in0.0 mm
02:02 PM 55.4°F13.0°C 37.6°F3.1°C 51% 5.0 mph N8.0 kmh N 7.8 mph12.6 kmh 25.01 in846.9 mb 0.00 in0.0 mm 0.00 in/hr0.0 mm/hr 0.00 in0.0 mm
02:07 PM 55.9°F13.3°C 37.6°F3.1°C 50% 5.0 mph N8.0 kmh N 10.1 mph16.3 kmh 25.01 in846.9 mb 0.00 in0.0 mm 0.00 in/hr0.0 mm/hr 0.00 in0.0 mm
02:12 PM 56.1°F13.4°C 37.8°F3.2°C 50% 6.0 mph N9.7 kmh N 10.1 mph16.3 kmh 25.01 in846.9 mb 0.00 in0.0 mm 0.00 in/hr0.0 mm/hr 0.00 in0.0 mm
02:17 PM 57.2°F14.0°C 38.3°F3.5°C 49% 6.0 mph N9.7 kmh N 9.6 mph15.4 kmh 25.01 in846.9 mb 0.00 in0.0 mm 0.00 in/hr0.0 mm/hr 0.00 in0.0 mm
02:22 PM 57.6°F14.2°C 37.4°F3.0°C 47% 6.0 mph N9.7 kmh N 9.2 mph14.8 kmh 25.01 in846.9 mb 0.00 in0.0 mm 0.00 in/hr0.0 mm/hr 0.00 in0.0 mm
02:27 PM 56.3°F13.5°C 35.8°F2.1°C 46% 6.0 mph N9.7 kmh N 8.3 mph13.4 kmh 25.01 in846.9 mb 0.00 in0.0 mm 0.00 in/hr0.0 mm/hr 0.00 in0.0 mm
02:32 PM 56.3°F13.5°C 35.2°F1.8°C 45% 5.0 mph 8.0 kmh 8.7 mph14.0 kmh 25.01 in846.9 mb 0.00 in0.0 mm 0.00 in/hr0.0 mm/hr 0.00 in0.0 mm
02:37 PM 55.8°F13.2°C 35.8°F2.1°C 47% 5.0 mph N8.0 kmh N 8.7 mph14.0 kmh 25.01 in846.9 mb 0.00 in0.0 mm 0.00 in/hr0.0 mm/hr 0.00 in0.0 mm
02:42 PM 55.8°F13.2°C 35.8°F2.1°C 47% 5.0 mph N8.0 kmh N 6.9 mph11.1 kmh 25.01 in846.9 mb 0.00 in0.0 mm 0.00 in/hr0.0 mm/hr 0.00 in0.0 mm
02:47 PM 56.1°F13.4°C 36.7°F2.6°C 48% 4.0 mph NNE6.4 kmh NNE 7.4 mph11.9 kmh 25.01 in846.9 mb 0.00 in0.0 mm 0.00 in/hr0.0 mm/hr 0.00 in0.0 mm
02:52 PM 55.8°F13.2°C 36.3°F2.4°C 48% 4.0 mph NNE6.4 kmh NNE 6.9 mph11.1 kmh 24.98 in845.9 mb 0.00 in0.0 mm 0.00 in/hr0.0 mm/hr 0.00 in0.0 mm
02:57 PM 55.8°F13.2°C 36.3°F2.4°C 48% 4.0 mph 6.4 kmh 5.4 mph8.7 kmh 24.98 in845.9 mb 0.00 in0.0 mm 0.00 in/hr0.0 mm/hr 0.00 in0.0 mm
03:02 PM 55.6°F13.1°C 36.7°F2.6°C 49% 4.0 mph N6.4 kmh N 8.3 mph13.4 kmh 24.98 in845.9 mb 0.00 in0.0 mm 0.00 in/hr0.0 mm/hr 0.00 in0.0 mm
03:07 PM 55.6°F13.1°C 37.8°F3.2°C 51% 4.0 mph N6.4 kmh N 8.3 mph13.4 kmh 24.98 in845.9 mb 0.00 in0.0 mm 0.00 in/hr0.0 mm/hr 0.00 in0.0 mm
03:12 PM 55.4°F13.0°C 37.6°F3.1°C 51% 3.0 mph N4.8 kmh N 6.9 mph11.1 kmh 24.98 in845.9 mb 0.00 in0.0 mm 0.00 in/hr0.0 mm/hr 0.00 in0.0 mm
03:17 PM 54.5°F12.5°C 38.1°F3.4°C 54% 3.0 mph NNW4.8 kmh NNW 7.4 mph11.9 kmh 24.98 in845.9 mb 0.00 in0.0 mm 0.00 in/hr0.0 mm/hr 0.00 in0.0 mm
03:22 PM 54.0°F12.2°C 38.1°F3.4°C 55% 2.0 mph N3.2 kmh N 4.5 mph7.2 kmh 25.01 in846.9 mb 0.00 in0.0 mm 0.00 in/hr0.0 mm/hr 0.00 in0.0 mm
03:27 PM 53.4°F11.9°C 41.2°F5.1°C 63% 2.0 mph NNE3.2 kmh NNE 6.3 mph10.1 kmh 25.01 in846.9 mb 0.00 in0.0 mm 0.00 in/hr0.0 mm/hr 0.00 in0.0 mm
03:32 PM 52.5°F11.4°C 41.9°F5.5°C 67% 3.0 mph NE4.8 kmh NE 4.9 mph7.9 kmh 25.01 in846.9 mb 0.00 in0.0 mm 0.00 in/hr0.0 mm/hr 0.00 in0.0 mm
03:38 PM 52.9°F11.6°C 44.1°F6.7°C 72% 2.0 mph NE3.2 kmh NE 4.5 mph7.2 kmh 25.01 in846.9 mb 0.00 in0.0 mm 0.00 in/hr0.0 mm/hr 0.00 in0.0 mm
03:43 PM 52.7°F11.5°C 45.3°F7.4°C 76% 3.0 mph E4.8 kmh E 5.8 mph9.3 kmh 25.01 in846.9 mb 0.00 in0.0 mm 0.00 in/hr0.0 mm/hr 0.00 in0.0 mm
03:48 PM 52.2°F11.2°C 44.4°F6.9°C 75% 3.0 mph SE4.8 kmh SE 5.8 mph9.3 kmh 25.01 in846.9 mb 0.00 in0.0 mm 0.00 in/hr0.0 mm/hr 0.00 in0.0 mm
03:53 PM 52.3°F11.3°C 46.0°F7.8°C 79% 2.0 mph SE3.2 kmh SE 6.3 mph10.1 kmh 25.01 in846.9 mb 0.00 in0.0 mm 0.00 in/hr0.0 mm/hr 0.00 in0.0 mm
03:58 PM 51.6°F10.9°C 46.2°F7.9°C 82% 4.0 mph SE6.4 kmh SE 7.4 mph11.9 kmh 25.01 in846.9 mb 0.00 in0.0 mm 0.00 in/hr0.0 mm/hr 0.00 in0.0 mm
04:03 PM 51.6°F10.9°C 46.6°F8.1°C 83% 4.0 mph SSE6.4 kmh SSE 6.3 mph10.1 kmh 25.01 in846.9 mb 0.00 in0.0 mm 0.00 in/hr0.0 mm/hr 0.00 in0.0 mm
04:08 PM 51.4°F10.8°C 46.4°F8.0°C 83% 4.0 mph S6.4 kmh S 5.4 mph8.7 kmh 25.01 in846.9 mb 0.00 in0.0 mm 0.00 in/hr0.0 mm/hr 0.00 in0.0 mm
04:13 PM 51.3°F10.7°C 46.2°F7.9°C 83% 4.0 mph SSW6.4 kmh SSW 7.4 mph11.9 kmh 25.01 in846.9 mb 0.00 in0.0 mm 0.00 in/hr0.0 mm/hr 0.00 in0.0 mm
04:18 PM 51.4°F10.8°C 46.4°F8.0°C 83% 6.0 mph WSW9.7 kmh WSW 10.1 mph16.3 kmh 25.01 in846.9 mb 0.00 in0.0 mm 0.00 in/hr0.0 mm/hr 0.00 in0.0 mm
04:23 PM 52.0°F11.1°C 47.7°F8.7°C 85% 6.0 mph W9.7 kmh W 9.2 mph14.8 kmh 25.01 in846.9 mb 0.00 in0.0 mm 0.00 in/hr0.0 mm/hr 0.00 in0.0 mm
04:28 PM 51.8°F11.0°C 47.5°F8.6°C 85% 6.0 mph WSW9.7 kmh WSW 11.2 mph18.0 kmh 25.01 in846.9 mb 0.00 in0.0 mm 0.00 in/hr0.0 mm/hr 0.00 in0.0 mm
04:33 PM 49.5°F9.7°C 45.5°F7.5°C 86% 9.0 mph WSW14.5 kmh WSW 15.2 mph24.5 kmh 25.01 in846.9 mb 0.00 in0.0 mm 0.00 in/hr0.0 mm/hr 0.00 in0.0 mm
04:38 PM 49.1°F9.5°C 45.1°F7.3°C 86% 9.0 mph SW14.5 kmh SW 10.1 mph16.3 kmh 25.04 in848.0 mb 0.00 in0.0 mm 0.00 in/hr0.0 mm/hr 0.00 in0.0 mm
04:43 PM 49.5°F9.7°C 45.5°F7.5°C 86% 6.0 mph SSW9.7 kmh SSW 8.3 mph13.4 kmh 25.04 in848.0 mb 0.00 in0.0 mm 0.00 in/hr0.0 mm/hr 0.00 in0.0 mm
04:48 PM 49.6°F9.8°C 45.7°F7.6°C 86% 6.0 mph S9.7 kmh S 7.4 mph11.9 kmh 25.04 in848.0 mb 0.00 in0.0 mm 0.00 in/hr0.0 mm/hr 0.00 in0.0 mm
04:53 PM 49.8°F9.9°C 46.0°F7.8°C 87% 5.0 mph S8.0 kmh S 6.9 mph11.1 kmh 25.04 in848.0 mb 0.00 in0.0 mm 0.00 in/hr0.0 mm/hr 0.00 in0.0 mm
04:58 PM 49.8°F9.9°C 46.0°F7.8°C 87% 5.0 mph SSW8.0 kmh SSW 10.5 mph16.9 kmh 25.04 in848.0 mb 0.00 in0.0 mm 0.00 in/hr0.0 mm/hr 0.00 in0.0 mm
05:03 PM 49.5°F9.7°C 45.5°F7.5°C 86% 6.0 mph SW9.7 kmh SW 10.5 mph16.9 kmh 25.04 in848.0 mb 0.00 in0.0 mm 0.00 in/hr0.0 mm/hr 0.00 in0.0 mm
05:08 PM 49.1°F9.5°C 45.3°F7.4°C 87% 6.0 mph WSW9.7 kmh WSW 9.2 mph14.8 kmh 25.04 in848.0 mb 0.00 in0.0 mm 0.00 in/hr0.0 mm/hr 0.00 in0.0 mm
05:13 PM 49.1°F9.5°C 45.3°F7.4°C 87% 4.0 mph WSW6.4 kmh WSW 5.4 mph8.7 kmh 25.04 in848.0 mb 0.00 in0.0 mm 0.00 in/hr0.0 mm/hr 0.00 in0.0 mm
05:18 PM 48.9°F9.4°C 45.0°F7.2°C 86% 2.0 mph WSW3.2 kmh WSW 4.5 mph7.2 kmh 25.04 in848.0 mb 0.00 in0.0 mm 0.00 in/hr0.0 mm/hr 0.00 in0.0 mm
05:23 PM 48.9°F9.4°C 45.0°F7.2°C 86% 2.0 mph W3.2 kmh W 4.0 mph6.4 kmh 25.04 in848.0 mb 0.00 in0.0 mm 0.00 in/hr0.0 mm/hr 0.00 in0.0 mm
05:28 PM 49.5°F9.7°C 45.5°F7.5°C 86% 1.0 mph W1.6 kmh W 3.1 mph5.0 kmh 25.04 in848.0 mb 0.00 in0.0 mm 0.00 in/hr0.0 mm/hr 0.00 in0.0 mm
05:33 PM 49.5°F9.7°C 45.1°F7.3°C 85% 1.0 mph W1.6 kmh W 3.1 mph5.0 kmh 25.04 in848.0 mb 0.00 in0.0 mm 0.00 in/hr0.0 mm/hr 0.00 in0.0 mm
05:38 PM 49.1°F9.5°C 44.8°F7.1°C 85% 1.0 mph W1.6 kmh W 4.5 mph7.2 kmh 25.04 in848.0 mb 0.00 in0.0 mm 0.00 in/hr0.0 mm/hr 0.00 in0.0 mm
05:43 PM 49.6°F9.8°C 45.3°F7.4°C 85% 2.0 mph NW3.2 kmh NW 5.8 mph9.3 kmh 25.04 in848.0 mb 0.00 in0.0 mm 0.00 in/hr0.0 mm/hr 0.00 in0.0 mm
05:48 PM 49.6°F9.8°C 45.3°F7.4°C 85% 3.0 mph NE4.8 kmh NE 5.8 mph9.3 kmh 25.04 in848.0 mb 0.00 in0.0 mm 0.00 in/hr0.0 mm/hr 0.00 in0.0 mm
05:53 PM 49.6°F9.8°C 45.0°F7.2°C 84% 3.0 mph NE4.8 kmh NE 5.8 mph9.3 kmh 25.04 in848.0 mb 0.00 in0.0 mm 0.00 in/hr0.0 mm/hr 0.00 in0.0 mm
05:58 PM 49.6°F9.8°C 45.0°F7.2°C 84% 3.0 mph NE4.8 kmh NE 4.9 mph7.9 kmh 25.04 in848.0 mb 0.00 in0.0 mm 0.00 in/hr0.0 mm/hr 0.00 in0.0 mm
06:03 PM 49.8°F9.9°C 45.1°F7.3°C 84% 3.0 mph NE4.8 kmh NE 5.4 mph8.7 kmh 25.04 in848.0 mb 0.00 in0.0 mm 0.00 in/hr0.0 mm/hr 0.00 in0.0 mm
06:08 PM 49.8°F9.9°C 44.8°F7.1°C 83% 2.0 mph NE3.2 kmh NE 4.9 mph7.9 kmh 25.04 in848.0 mb 0.00 in0.0 mm 0.00 in/hr0.0 mm/hr 0.00 in0.0 mm
06:13 PM 50.2°F10.1°C 45.1°F7.3°C 83% 3.0 mph NE4.8 kmh NE 6.3 mph10.1 kmh 25.04 in848.0 mb 0.00 in0.0 mm 0.00 in/hr0.0 mm/hr 0.00 in0.0 mm
06:18 PM 50.0°F10.0°C 45.0°F7.2°C 83% 2.0 mph NE3.2 kmh NE 3.6 mph5.8 kmh 25.04 in848.0 mb 0.00 in0.0 mm 0.00 in/hr0.0 mm/hr 0.00 in0.0 mm
06:23 PM 50.2°F10.1°C 45.1°F7.3°C 83% 1.0 mph ENE1.6 kmh ENE 5.4 mph8.7 kmh 25.04 in848.0 mb 0.00 in0.0 mm 0.00 in/hr0.0 mm/hr 0.00 in0.0 mm
06:28 PM 50.2°F10.1°C 45.0°F7.2°C 82% 2.0 mph NE3.2 kmh NE 6.3 mph10.1 kmh 25.04 in848.0 mb 0.00 in0.0 mm 0.00 in/hr0.0 mm/hr 0.00 in0.0 mm
06:33 PM 50.2°F10.1°C 45.0°F7.2°C 82% 3.0 mph NE4.8 kmh NE 6.3 mph10.1 kmh 25.04 in848.0 mb 0.00 in0.0 mm 0.00 in/hr0.0 mm/hr 0.00 in0.0 mm
06:38 PM 50.2°F10.1°C 45.0°F7.2°C 82% 3.0 mph NE4.8 kmh NE 5.4 mph8.7 kmh 25.07 in849.0 mb 0.00 in0.0 mm 0.00 in/hr0.0 mm/hr 0.00 in0.0 mm
06:43 PM 50.2°F10.1°C 44.6°F7.0°C 81% 3.0 mph NE4.8 kmh NE 5.8 mph9.3 kmh 25.07 in849.0 mb 0.00 in0.0 mm 0.00 in/hr0.0 mm/hr 0.00 in0.0 mm
06:48 PM 50.4°F10.2°C 44.8°F7.1°C 81% 2.0 mph NE3.2 kmh NE 4.5 mph7.2 kmh 25.07 in849.0 mb 0.00 in0.0 mm 0.00 in/hr0.0 mm/hr 0.00 in0.0 mm
06:53 PM 50.4°F10.2°C 44.8°F7.1°C 81% 2.0 mph NE3.2 kmh NE 4.9 mph7.9 kmh 25.07 in849.0 mb 0.00 in0.0 mm 0.00 in/hr0.0 mm/hr 0.00 in0.0 mm
06:58 PM 50.4°F10.2°C 44.8°F7.1°C 81% 2.0 mph NE3.2 kmh NE 3.6 mph5.8 kmh 25.07 in849.0 mb 0.00 in0.0 mm 0.00 in/hr0.0 mm/hr 0.00 in0.0 mm
07:03 PM 50.7°F10.4°C 45.1°F7.3°C 81% Calm Calm 2.7 mph4.3 kmh 25.07 in849.0 mb 0.00 in0.0 mm 0.00 in/hr0.0 mm/hr 0.00 in0.0 mm
07:08 PM 50.5°F10.3°C 44.6°F7.0°C 80% Calm Calm 3.1 mph5.0 kmh 25.07 in849.0 mb 0.00 in0.0 mm 0.00 in/hr0.0 mm/hr 0.00 in0.0 mm
07:13 PM 50.9°F10.5°C 44.6°F7.0°C 79% Calm Calm 3.1 mph5.0 kmh 25.07 in849.0 mb 0.00 in0.0 mm 0.00 in/hr0.0 mm/hr 0.00 in0.0 mm
07:18 PM 50.7°F10.4°C 44.4°F6.9°C 79% 2.0 mph NE3.2 kmh NE 4.0 mph6.4 kmh 25.07 in849.0 mb 0.00 in0.0 mm 0.00 in/hr0.0 mm/hr 0.00 in0.0 mm
07:23 PM 50.7°F10.4°C 44.1°F6.7°C 78% 3.0 mph NE4.8 kmh NE 4.9 mph7.9 kmh 25.07 in849.0 mb 0.00 in0.0 mm 0.00 in/hr0.0 mm/hr 0.00 in0.0 mm
07:28 PM 50.5°F10.3°C 43.3°F6.3°C 76% 4.0 mph N6.4 kmh N 5.8 mph9.3 kmh 25.07 in849.0 mb 0.00 in0.0 mm 0.00 in/hr0.0 mm/hr 0.00 in0.0 mm
07:33 PM 50.4°F10.2°C 43.3°F6.3°C 77% 4.0 mph NW6.4 kmh NW 5.8 mph9.3 kmh 25.07 in849.0 mb 0.00 in0.0 mm 0.00 in/hr0.0 mm/hr 0.00 in0.0 mm
07:38 PM 50.0°F10.0°C 44.4°F6.9°C 81% 4.0 mph NW6.4 kmh NW 5.8 mph9.3 kmh 25.10 in850.0 mb 0.00 in0.0 mm 0.00 in/hr0.0 mm/hr 0.00 in0.0 mm
07:43 PM 49.8°F9.9°C 44.2°F6.8°C 81% 2.0 mph NW3.2 kmh NW 4.9 mph7.9 kmh 25.10 in850.0 mb 0.00 in0.0 mm 0.00 in/hr0.0 mm/hr 0.00 in0.0 mm
07:48 PM 49.8°F9.9°C 44.6°F7.0°C 82% 1.0 mph NW1.6 kmh NW 3.6 mph5.8 kmh 25.10 in850.0 mb 0.00 in0.0 mm 0.00 in/hr0.0 mm/hr 0.00 in0.0 mm
07:53 PM 49.8°F9.9°C 44.6°F7.0°C 82% 2.0 mph NW3.2 kmh NW 4.9 mph7.9 kmh 25.10 in850.0 mb 0.00 in0.0 mm 0.00 in/hr0.0 mm/hr 0.00 in0.0 mm
07:58 PM 50.2°F10.1°C 45.5°F7.5°C 84% 4.0 mph WNW6.4 kmh WNW 8.7 mph14.0 kmh 25.10 in850.0 mb 0.00 in0.0 mm 0.00 in/hr0.0 mm/hr 0.00 in0.0 mm
08:03 PM 49.8°F9.9°C 46.0°F7.8°C 87% 6.0 mph SSW9.7 kmh SSW 9.6 mph15.4 kmh 25.10 in850.0 mb 0.00 in0.0 mm 0.00 in/hr0.0 mm/hr 0.00 in0.0 mm
08:08 PM 48.9°F9.4°C 44.6°F7.0°C 85% 7.0 mph S11.3 kmh S 11.6 mph18.7 kmh 25.10 in850.0 mb 0.00 in0.0 mm 0.00 in/hr0.0 mm/hr 0.00 in0.0 mm
08:18 PM 46.2°F7.9°C 41.4°F5.2°C 83% 10.0 mph WSW16.1 kmh WSW 14.3 mph23.0 kmh 25.13 in851.0 mb 0.00 in0.0 mm 0.00 in/hr0.0 mm/hr 0.00 in0.0 mm
08:23 PM 45.9°F7.7°C 41.4°F5.2°C 84% 9.0 mph W14.5 kmh W 11.6 mph18.7 kmh 25.13 in851.0 mb 0.00 in0.0 mm 0.00 in/hr0.0 mm/hr 0.00 in0.0 mm
08:28 PM 46.0°F7.8°C 40.5°F4.7°C 81% 8.0 mph W12.9 kmh W 11.2 mph18.0 kmh 25.13 in851.0 mb 0.00 in0.0 mm 0.00 in/hr0.0 mm/hr 0.00 in0.0 mm
08:33 PM 46.2°F7.9°C 41.0°F5.0°C 82% 4.0 mph WNW6.4 kmh WNW 5.4 mph8.7 kmh 25.13 in851.0 mb 0.00 in0.0 mm 0.00 in/hr0.0 mm/hr 0.00 in0.0 mm
08:38 PM 46.2°F7.9°C 41.4°F5.2°C 83% 4.0 mph N6.4 kmh N 6.7 mph10.8 kmh 25.13 in851.0 mb 0.00 in0.0 mm 0.00 in/hr0.0 mm/hr 0.00 in0.0 mm
08:43 PM 46.0°F7.8°C 41.5°F5.3°C 84% 5.0 mph NE8.0 kmh NE 8.3 mph13.4 kmh 25.13 in851.0 mb 0.00 in0.0 mm 0.00 in/hr0.0 mm/hr 0.00 in0.0 mm
08:48 PM 46.2°F7.9°C 41.7°F5.4°C 84% 4.0 mph NE6.4 kmh NE 5.8 mph9.3 kmh 25.13 in851.0 mb 0.00 in0.0 mm 0.00 in/hr0.0 mm/hr 0.00 in0.0 mm
08:53 PM 46.2°F7.9°C 41.4°F5.2°C 83% 3.0 mph NE4.8 kmh NE 5.8 mph9.3 kmh 25.13 in851.0 mb 0.00 in0.0 mm 0.00 in/hr0.0 mm/hr 0.00 in0.0 mm
08:58 PM 46.2°F7.9°C 41.7°F5.4°C 84% 4.0 mph NE6.4 kmh NE 10.1 mph16.3 kmh 25.13 in851.0 mb 0.00 in0.0 mm 0.00 in/hr0.0 mm/hr 0.00 in0.0 mm
09:03 PM 46.4°F8.0°C 41.2°F5.1°C 82% 6.0 mph NE9.7 kmh NE 10.5 mph16.9 kmh 25.13 in851.0 mb 0.00 in0.0 mm 0.00 in/hr0.0 mm/hr 0.00 in0.0 mm
09:08 PM 46.8°F8.2°C 41.5°F5.3°C 82% 7.0 mph ENE11.3 kmh ENE 9.2 mph14.8 kmh 25.13 in851.0 mb 0.00 in0.0 mm 0.00 in/hr0.0 mm/hr 0.00 in0.0 mm
09:13 PM 46.6°F8.1°C 41.0°F5.0°C 81% 5.0 mph NE8.0 kmh NE 6.9 mph11.1 kmh 25.13 in851.0 mb 0.00 in0.0 mm 0.00 in/hr0.0 mm/hr 0.00 in0.0 mm
09:19 PM 46.6°F8.1°C 41.4°F5.2°C 82% 4.0 mph NE6.4 kmh NE 5.4 mph8.7 kmh 25.13 in851.0 mb 0.00 in0.0 mm 0.00 in/hr0.0 mm/hr 0.00 in0.0 mm
09:24 PM 46.4°F8.0°C 41.2°F5.1°C 82% 3.0 mph NE4.8 kmh NE 5.4 mph8.7 kmh 25.13 in851.0 mb 0.00 in0.0 mm 0.00 in/hr0.0 mm/hr 0.00 in0.0 mm
09:29 PM 46.6°F8.1°C 41.4°F5.2°C 82% 2.0 mph NE3.2 kmh NE 5.4 mph8.7 kmh 25.13 in851.0 mb 0.00 in0.0 mm 0.00 in/hr0.0 mm/hr 0.00 in0.0 mm
09:34 PM 46.6°F8.1°C 41.0°F5.0°C 81% 3.0 mph NE4.8 kmh NE 6.9 mph11.1 kmh 25.16 in852.0 mb 0.00 in0.0 mm 0.00 in/hr0.0 mm/hr 0.00 in0.0 mm
09:39 PM 46.8°F8.2°C 40.6°F4.8°C 79% 4.0 mph NE6.4 kmh NE 9.6 mph15.4 kmh 25.16 in852.0 mb 0.00 in0.0 mm 0.00 in/hr0.0 mm/hr 0.00 in0.0 mm
09:44 PM 47.1°F8.4°C 39.9°F4.4°C 76% 5.0 mph ENE8.0 kmh ENE 9.2 mph14.8 kmh 25.16 in852.0 mb 0.00 in0.0 mm 0.00 in/hr0.0 mm/hr 0.00 in0.0 mm
09:49 PM 46.6°F8.1°C 39.7°F4.3°C 77% 5.0 mph NE8.0 kmh NE 7.8 mph12.6 kmh 25.13 in851.0 mb 0.00 in0.0 mm 0.00 in/hr0.0 mm/hr 0.00 in0.0 mm
09:54 PM 46.8°F8.2°C 39.6°F4.2°C 76% 4.0 mph NNE6.4 kmh NNE 6.3 mph10.1 kmh 25.13 in851.0 mb 0.00 in0.0 mm 0.00 in/hr0.0 mm/hr 0.00 in0.0 mm
09:59 PM 46.6°F8.1°C 39.0°F3.9°C 75% 4.0 mph NE6.4 kmh NE 4.9 mph7.9 kmh 25.13 in851.0 mb 0.00 in0.0 mm 0.00 in/hr0.0 mm/hr 0.00 in0.0 mm
10:04 PM 46.4°F8.0°C 38.8°F3.8°C 75% 3.0 mph NNE4.8 kmh NNE 4.9 mph7.9 kmh 25.13 in851.0 mb 0.00 in0.0 mm 0.00 in/hr0.0 mm/hr 0.00 in0.0 mm
10:09 PM 46.8°F8.2°C 39.2°F4.0°C 75% 3.0 mph N4.8 kmh N 5.4 mph8.7 kmh 25.13 in851.0 mb 0.00 in0.0 mm 0.00 in/hr0.0 mm/hr 0.00 in0.0 mm
10:14 PM 46.9°F8.3°C 38.7°F3.7°C 73% 3.0 mph N4.8 kmh N 4.9 mph7.9 kmh 25.13 in851.0 mb 0.00 in0.0 mm 0.00 in/hr0.0 mm/hr 0.00 in0.0 mm
10:19 PM 46.6°F8.1°C 38.5°F3.6°C 73% 1.0 mph NNE1.6 kmh NNE 3.6 mph5.8 kmh 25.16 in852.0 mb 0.00 in0.0 mm 0.00 in/hr0.0 mm/hr 0.00 in0.0 mm
10:24 PM 46.4°F8.0°C 38.7°F3.7°C 74% Calm Calm 3.6 mph5.8 kmh 25.16 in852.0 mb 0.00 in0.0 mm 0.00 in/hr0.0 mm/hr 0.00 in0.0 mm
10:29 PM 46.2°F7.9°C 38.5°F3.6°C 74% Calm Calm 3.6 mph5.8 kmh 25.16 in852.0 mb 0.00 in0.0 mm 0.00 in/hr0.0 mm/hr 0.00 in0.0 mm
10:34 PM 46.2°F7.9°C 38.7°F3.7°C 75% 1.0 mph NNE1.6 kmh NNE 4.5 mph7.2 kmh 25.16 in852.0 mb 0.00 in0.0 mm 0.00 in/hr0.0 mm/hr 0.00 in0.0 mm
10:39 PM 46.2°F7.9°C 39.0°F3.9°C 76% 2.0 mph E3.2 kmh E 5.4 mph8.7 kmh 25.16 in852.0 mb 0.00 in0.0 mm 0.00 in/hr0.0 mm/hr 0.00 in0.0 mm
10:44 PM 46.2°F7.9°C 39.4°F4.1°C 77% 3.0 mph SE4.8 kmh SE 4.5 mph7.2 kmh 25.16 in852.0 mb 0.00 in0.0 mm 0.00 in/hr0.0 mm/hr 0.00 in0.0 mm
10:49 PM 46.2°F7.9°C 39.4°F4.1°C 77% 3.0 mph SE4.8 kmh SE 5.4 mph8.7 kmh 25.16 in852.0 mb 0.00 in0.0 mm 0.00 in/hr0.0 mm/hr 0.00 in0.0 mm
10:54 PM 46.4°F8.0°C 40.3°F4.6°C 79% 1.0 mph SE1.6 kmh SE 3.1 mph5.0 kmh 25.16 in852.0 mb 0.00 in0.0 mm 0.00 in/hr0.0 mm/hr 0.00 in0.0 mm
10:59 PM 46.2°F7.9°C 40.1°F4.5°C 79% 1.0 mph SE1.6 kmh SE 4.9 mph7.9 kmh 25.16 in852.0 mb 0.00 in0.0 mm 0.00 in/hr0.0 mm/hr 0.00 in0.0 mm
11:04 PM 46.2°F7.9°C 40.1°F4.5°C 79% 2.0 mph SE3.2 kmh SE 4.5 mph7.2 kmh 25.16 in852.0 mb 0.00 in0.0 mm 0.00 in/hr0.0 mm/hr 0.00 in0.0 mm
11:09 PM 46.4°F8.0°C 40.3°F4.6°C 79% 2.0 mph SE3.2 kmh SE 3.1 mph5.0 kmh 25.16 in852.0 mb 0.00 in0.0 mm 0.00 in/hr0.0 mm/hr 0.00 in0.0 mm
11:14 PM 46.6°F8.1°C 40.1°F4.5°C 78% 2.0 mph SE3.2 kmh SE 3.6 mph5.8 kmh 25.16 in852.0 mb 0.00 in0.0 mm 0.00 in/hr0.0 mm/hr 0.00 in0.0 mm
11:19 PM 46.9°F8.3°C 40.1°F4.5°C 77% 2.0 mph SE3.2 kmh SE 4.5 mph7.2 kmh 25.19 in853.0 mb 0.00 in0.0 mm 0.00 in/hr0.0 mm/hr 0.00 in0.0 mm
11:24 PM 46.8°F8.2°C 40.6°F4.8°C 79% 4.0 mph SSE6.4 kmh SSE 10.5 mph16.9 kmh 25.19 in853.0 mb 0.00 in0.0 mm 0.00 in/hr0.0 mm/hr 0.00 in0.0 mm
11:29 PM 46.0°F7.8°C 41.7°F5.4°C 85% 7.0 mph S11.3 kmh S 13.4 mph21.6 kmh 25.19 in853.0 mb 0.00 in0.0 mm 0.00 in/hr0.0 mm/hr 0.00 in0.0 mm
11:34 PM 45.7°F7.6°C 41.7°F5.4°C 86% 9.0 mph S14.5 kmh S 12.1 mph19.5 kmh 25.19 in853.0 mb 0.00 in0.0 mm 0.00 in/hr0.0 mm/hr 0.00 in0.0 mm
11:39 PM 46.0°F7.8°C 42.1°F5.6°C 86% 8.0 mph S12.9 kmh S 11.2 mph18.0 kmh 25.19 in853.0 mb 0.00 in0.0 mm 0.00 in/hr0.0 mm/hr 0.00 in0.0 mm
11:44 PM 46.2°F7.9°C 41.7°F5.4°C 84% 8.0 mph S12.9 kmh S 13.0 mph20.9 kmh 25.19 in853.0 mb 0.00 in0.0 mm 0.00 in/hr0.0 mm/hr 0.00 in0.0 mm
11:49 PM 46.6°F8.1°C 39.0°F3.9°C 75% 8.0 mph SE12.9 kmh SE 15.2 mph24.5 kmh 25.19 in853.0 mb 0.00 in0.0 mm 0.00 in/hr0.0 mm/hr 0.00 in0.0 mm
11:54 PM 46.9°F8.3°C 34.5°F1.4°C 62% 9.0 mph SE14.5 kmh SE 16.8 mph27.0 kmh 25.19 in853.0 mb 0.00 in0.0 mm 0.00 in/hr0.0 mm/hr 0.00 in0.0 mm
11:59 PM 47.1°F8.4°C 30.9°F-0.6°C 53% 9.0 mph ESE14.5 kmh ESE 15.4 mph24.8 kmh 25.19 in853.0 mb 0.00 in0.0 mm 0.00 in/hr0.0 mm/hr 0.00 in0.0 mm